Time;durP1;ratioP1;P1;durP2;ratioP2;P2;SDS_P1;SDS_P2;PMS_P1;PMS_P2;Temp;Humidity;BMP_temperature;BMP_pressure;BME280_temperature;BME280_humidity;BME280_pressure;Samples;Min_cycle;Max_cycle;Signal;HPM_P1;HPM_P2
2023/02/25 00:00:18;;;;;;;64.55;41.17;;;14.10;1.00;;;;;;5113219;28;20035;-59
2023/02/25 00:02:48;;;;;;;65.32;42.28;;;14.20;1.00;;;;;;5104413;28;20020;-60
2023/02/25 00:05:17;;;;;;;68.25;43.50;;;14.20;1.00;;;;;;5115339;28;20026;-59
2023/02/25 00:07:43;;;;;;;63.45;41.05;;;14.20;1.00;;;;;;5115222;27;20030;-59
2023/02/25 00:10:10;;;;;;;60.95;39.38;;;14.20;1.00;;;;;;5113752;28;20114;-59
2023/02/25 00:12:37;;;;;;;68.15;40.95;;;14.20;1.00;;;;;;5114758;28;20077;-59
2023/02/25 00:15:04;;;;;;;64.53;41.47;;;14.20;1.00;;;;;;5115311;28;20030;-60
2023/02/25 00:17:31;;;;;;;66.57;40.85;;;14.20;1.00;;;;;;5115118;28;20015;-59
2023/02/25 00:19:56;;;;;;;65.30;42.10;;;14.20;1.00;;;;;;5114645;28;20039;-59
2023/02/25 00:22:23;;;;;;;69.30;43.38;;;14.20;1.00;;;;;;5115201;28;20016;-59
2023/02/25 00:24:53;;;;;;;65.10;41.88;;;14.20;1.00;;;;;;5114772;28;20366;-59
2023/02/25 00:27:20;;;;;;;62.13;40.42;;;14.20;1.00;;;;;;5114849;28;20028;-59
2023/02/25 00:29:46;;;;;;;63.63;41.70;;;14.20;1.00;;;;;;5107174;27;20020;-59
2023/02/25 00:32:11;;;;;;;65.43;41.33;;;14.30;1.00;;;;;;5109706;28;20031;-59
2023/02/25 00:34:37;;;;;;;62.65;41.95;;;14.20;1.00;;;;;;5114850;28;20433;-59
2023/02/25 00:37:03;;;;;;;67.28;42.83;;;14.20;1.00;;;;;;5114850;28;20477;-59
2023/02/25 00:39:40;;;;;;;64.10;41.15;;;14.30;1.00;;;;;;5114685;28;20126;-59
2023/02/25 00:42:07;;;;;;;66.28;43.47;;;14.20;1.00;;;;;;5114490;28;20020;-59
2023/02/25 00:44:33;;;;;;;63.83;40.65;;;14.20;1.00;;;;;;5114655;28;20015;-59
2023/02/25 00:46:59;;;;;;;65.65;41.50;;;14.10;1.00;;;;;;5114414;28;20022;-60
2023/02/25 00:49:25;;;;;;;67.78;42.25;;;14.10;1.00;;;;;;5114480;28;20012;-60
2023/02/25 00:51:52;;;;;;;65.57;42.25;;;14.10;1.00;;;;;;5113121;28;20024;-59
2023/02/25 00:54:17;;;;;;;66.15;41.10;;;14.00;1.00;;;;;;5112698;28;20042;-59
2023/02/25 00:56:43;;;;;;;64.40;42.33;;;14.00;1.00;;;;;;5112928;28;20027;-60
2023/02/25 00:59:09;;;;;;;65.47;42.85;;;13.90;1.00;;;;;;5114114;28;20031;-59
2023/02/25 01:01:37;;;;;;;62.42;41.60;;;13.90;1.00;;;;;;5114069;28;20473;-60
2023/02/25 01:04:03;;;;;;;62.90;40.35;;;13.90;1.00;;;;;;5113895;28;20439;-59
2023/02/25 01:06:36;;;;;;;64.05;41.95;;;13.80;1.00;;;;;;5114098;28;20066;-59
2023/02/25 01:09:04;;;;;;;61.63;40.10;;;13.80;1.00;;;;;;5114033;28;20019;-59
2023/02/25 01:11:33;;;;;;;61.42;40.70;;;13.80;1.00;;;;;;5113925;28;20027;-59
2023/02/25 01:14:02;;;;;;;60.85;38.15;;;13.80;1.00;;;;;;5113821;28;20031;-59
2023/02/25 01:16:29;;;;;;;62.17;40.67;;;13.80;1.00;;;;;;5113701;28;20027;-60
2023/02/25 01:18:56;;;;;;;64.20;40.70;;;13.70;1.00;;;;;;5113644;28;20023;-59
2023/02/25 01:21:25;;;;;;;61.42;39.90;;;13.70;1.00;;;;;;5113596;27;20040;-59
2023/02/25 01:23:58;;;;;;;65.63;40.45;;;13.70;1.00;;;;;;5113350;28;20047;-59
2023/02/25 01:26:29;;;;;;;63.92;39.38;;;13.70;1.00;;;;;;5112298;28;20477;-59
2023/02/25 01:28:55;;;;;;;64.78;39.40;;;13.70;1.00;;;;;;5113666;28;20424;-59
2023/02/25 01:31:23;;;;;;;65.03;38.80;;;13.70;1.00;;;;;;5113491;28;20023;-59
2023/02/25 01:33:52;;;;;;;57.10;39.00;;;13.70;1.00;;;;;;5111831;28;20024;-59
2023/02/25 01:36:30;;;;;;;63.75;40.97;;;13.70;1.00;;;;;;5095773;28;20047;-59
2023/02/25 01:38:55;;;;;;;65.28;39.38;;;13.70;1.00;;;;;;5108757;28;20398;-59
2023/02/25 01:41:25;;;;;;;63.42;40.00;;;13.70;1.00;;;;;;5113463;28;20032;-59
2023/02/25 01:44:03;;;;;;;55.10;37.08;;;13.60;1.00;;;;;;5113146;28;20022;-59
2023/02/25 01:46:29;;;;;;;58.97;38.45;;;13.60;1.00;;;;;;5103865;28;20055;-60
2023/02/25 01:48:55;;;;;;;59.72;40.55;;;13.60;1.00;;;;;;5112720;27;20069;-60
2023/02/25 01:51:26;;;;;;;61.30;38.90;;;13.60;1.00;;;;;;5113217;28;20019;-60
2023/02/25 01:53:53;;;;;;;56.90;39.63;;;13.50;1.00;;;;;;5098779;28;20551;-59
2023/02/25 01:56:21;;;;;;;63.30;38.55;;;13.60;1.00;;;;;;5113410;28;20015;-59
2023/02/25 01:58:48;;;;;;;59.25;39.80;;;13.50;1.00;;;;;;5104754;28;20027;-59
2023/02/25 02:01:18;;;;;;;58.80;39.33;;;13.60;1.00;;;;;;5093699;28;20047;-60
2023/02/25 02:03:44;;;;;;;59.28;38.67;;;13.50;1.00;;;;;;5106711;28;20065;-60
2023/02/25 02:06:30;;;;;;;65.38;38.50;;;13.40;1.00;;;;;;5112345;28;20366;-60
2023/02/25 02:08:56;;;;;;;68.93;40.72;;;13.40;1.00;;;;;;5112475;28;20053;-59
2023/02/25 02:11:22;;;;;;;60.78;39.47;;;13.40;1.00;;;;;;5102619;28;20031;-60
2023/02/25 02:13:51;;;;;;;62.00;41.95;;;13.40;1.00;;;;;;5102679;28;20100;-60
2023/02/25 02:16:29;;;;;;;62.83;39.72;;;13.40;1.00;;;;;;5111312;28;20408;-59
2023/02/25 02:19:13;;;;;;;62.63;41.05;;;13.50;1.00;;;;;;5111808;28;20035;-60
2023/02/25 02:22:16;;;;;;;66.47;40.92;;;13.50;1.00;;;;;;5111981;28;20063;-60
2023/02/25 02:25:02;;;;;;;60.80;39.30;;;13.60;1.00;;;;;;5100500;28;20495;-59
2023/02/25 02:27:55;;;;;;;60.55;40.80;;;13.60;1.00;;;;;;5111406;28;20035;-59
2023/02/25 02:30:36;;;;;;;60.35;40.85;;;13.60;1.00;;;;;;5107396;28;20426;-59
2023/02/25 02:33:05;;;;;;;64.45;39.08;;;13.60;1.00;;;;;;5098346;28;20024;-59
2023/02/25 02:35:57;;;;;;;64.60;41.50;;;13.70;1.00;;;;;;5110239;28;20122;-59
2023/02/25 02:39:04;;;;;;;62.85;41.17;;;13.70;1.00;;;;;;5099931;28;20035;-59
2023/02/25 02:41:33;;;;;;;60.67;38.35;;;13.70;1.00;;;;;;5085181;28;20118;-59
2023/02/25 02:44:31;;;;;;;62.40;39.33;;;13.80;1.00;;;;;;5111831;28;20031;-59
2023/02/25 02:47:02;;;;;;;58.00;39.25;;;13.80;1.00;;;;;;5101654;28;20031;-59
2023/02/25 02:49:50;;;;;;;66.72;41.65;;;13.80;1.00;;;;;;5111951;28;20031;-59
2023/02/25 02:52:21;;;;;;;59.08;39.38;;;13.80;1.00;;;;;;5112146;28;20504;-59
2023/02/25 02:55:21;;;;;;;62.50;41.97;;;13.70;1.00;;;;;;5112095;28;20155;-59
2023/02/25 02:57:49;;;;;;;57.70;38.67;;;13.70;1.00;;;;;;5112209;28;20103;-59
2023/02/25 03:00:17;;;;;;;56.58;38.50;;;13.70;1.00;;;;;;5106976;28;20496;-59
2023/02/25 03:02:59;;;;;;;62.88;38.03;;;13.70;1.00;;;;;;5112046;28;20027;-59
2023/02/25 03:05:30;;;;;;;62.40;37.88;;;13.70;1.00;;;;;;5098309;28;20023;-59
2023/02/25 03:08:10;;;;;;;56.33;36.60;;;13.60;1.00;;;;;;5112326;28;20020;-59
2023/02/25 03:10:36;;;;;;;57.58;37.97;;;13.70;1.00;;;;;;5104399;28;20380;-59
2023/02/25 03:13:02;;;;;;;56.95;37.42;;;13.70;1.00;;;;;;5104828;28;20035;-59
2023/02/25 03:15:29;;;;;;;52.15;35.10;;;13.80;1.00;;;;;;5105021;28;20409;-59
2023/02/25 03:18:02;;;;;;;52.35;36.08;;;13.80;1.00;;;;;;5102025;28;20028;-59
2023/02/25 03:20:40;;;;;;;50.35;34.25;;;13.80;1.00;;;;;;5109620;28;20561;-59
2023/02/25 03:23:10;;;;;;;50.00;34.05;;;13.80;1.00;;;;;;5112254;28;20126;-59
2023/02/25 03:25:46;;;;;;;49.63;32.05;;;13.80;1.00;;;;;;5107844;28;20024;-59
2023/02/25 03:28:24;;;;;;;49.00;33.22;;;13.70;1.00;;;;;;5102603;28;20020;-59
2023/02/25 03:30:58;;;;;;;49.75;34.38;;;13.70;1.00;;;;;;5099357;28;20044;-59
2023/02/25 03:46:35;;;;;;;47.80;32.88;;;13.80;1.00;;;;;;5097847;28;20035;-59
2023/02/25 03:49:03;;;;;;;50.30;32.85;;;13.80;1.00;;;;;;5109692;28;20024;-60
2023/02/25 03:51:36;;;;;;;49.25;32.65;;;13.80;1.00;;;;;;5113671;28;20016;-59
2023/02/25 03:54:01;;;;;;;50.03;32.90;;;13.90;1.00;;;;;;5113686;28;20446;-60
2023/02/25 03:56:27;;;;;;;47.85;34.28;;;13.80;1.00;;;;;;5115117;28;20176;-59
2023/02/25 03:58:53;;;;;;;50.28;33.33;;;13.60;1.00;;;;;;5115042;28;20024;-59
2023/02/25 04:01:26;;;;;;;50.83;33.92;;;13.70;1.00;;;;;;5113179;28;20032;-59
2023/02/25 04:03:51;;;;;;;51.47;34.42;;;13.70;1.00;;;;;;5115047;28;20145;-59
2023/02/25 04:06:21;;;;;;;55.83;36.60;;;13.70;1.00;;;;;;5113815;28;20110;-59
2023/02/25 04:08:47;;;;;;;49.85;35.70;;;13.70;1.00;;;;;;5115158;28;20087;-59
2023/02/25 04:11:13;;;;;;;47.28;32.75;;;13.70;1.00;;;;;;5114475;28;20103;-59
2023/02/25 04:13:38;;;;;;;50.50;33.35;;;13.70;1.00;;;;;;5114899;28;20031;-59
2023/02/25 04:16:05;;;;;;;47.25;32.33;;;13.60;1.00;;;;;;5114760;28;20051;-59
2023/02/25 04:18:30;;;;;;;48.78;34.58;;;13.70;1.00;;;;;;5115043;28;20039;-59
2023/02/25 04:20:56;;;;;;;46.25;32.40;;;13.70;1.00;;;;;;5105320;28;20039;-59
2023/02/25 04:23:22;;;;;;;47.83;33.13;;;13.60;1.00;;;;;;5110020;28;20062;-59
2023/02/25 04:25:47;;;;;;;47.70;32.80;;;13.60;1.00;;;;;;5114399;28;20031;-59
2023/02/25 04:28:13;;;;;;;48.47;30.92;;;13.60;1.00;;;;;;5114809;28;20035;-59
2023/02/25 04:30:38;;;;;;;51.10;33.88;;;13.60;1.00;;;;;;5114317;28;20036;-59
2023/02/25 04:33:04;;;;;;;46.92;33.72;;;13.60;1.00;;;;;;5114744;28;20491;-60
2023/02/25 04:35:30;;;;;;;44.55;32.88;;;13.50;1.00;;;;;;5114441;28;20028;-60
2023/02/25 04:37:55;;;;;;;53.38;35.10;;;13.40;1.00;;;;;;5115004;28;20035;-60
2023/02/25 04:40:23;;;;;;;49.00;33.30;;;13.40;1.00;;;;;;5112732;28;20531;-60
2023/02/25 04:42:48;;;;;;;49.72;34.08;;;13.30;1.00;;;;;;5114490;28;20476;-60
2023/02/25 04:45:15;;;;;;;46.05;34.08;;;13.40;1.00;;;;;;5114096;28;20055;-60
2023/02/25 04:47:40;;;;;;;51.03;34.15;;;13.40;1.00;;;;;;5114259;28;20022;-59
2023/02/25 04:50:08;;;;;;;53.85;34.08;;;13.40;1.00;;;;;;5107400;28;20027;-59
2023/02/25 04:52:34;;;;;;;49.00;33.30;;;13.30;1.00;;;;;;5108106;28;20466;-59
2023/02/25 04:55:08;;;;;;;49.38;34.13;;;13.20;1.00;;;;;;5107043;28;20094;-60
2023/02/25 04:57:37;;;;;;;57.55;35.33;;;13.20;1.00;;;;;;5108777;28;20023;-60
2023/02/25 05:00:07;;;;;;;49.17;35.20;;;13.20;1.00;;;;;;5112881;28;20511;-60
2023/02/25 05:02:32;;;;;;;51.22;35.72;;;13.20;1.00;;;;;;5114461;27;20028;-60
2023/02/25 05:04:58;;;;;;;56.03;35.97;;;13.20;1.00;;;;;;5113779;28;20553;-60
2023/02/25 05:07:23;;;;;;;55.22;35.63;;;13.20;1.00;;;;;;5113965;28;20015;-59
2023/02/25 05:09:50;;;;;;;50.90;32.45;;;13.20;1.00;;;;;;5102746;28;20020;-59
2023/02/25 05:12:16;;;;;;;52.45;35.38;;;13.20;1.00;;;;;;5099428;28;20358;-60
2023/02/25 05:14:42;;;;;;;51.13;33.80;;;13.10;1.00;;;;;;5113131;28;20034;-59
2023/02/25 05:17:07;;;;;;;49.95;33.17;;;13.00;1.00;;;;;;5113736;28;20024;-60
2023/02/25 05:19:33;;;;;;;59.05;36.42;;;13.10;1.00;;;;;;5109168;28;20051;-60
2023/02/25 05:22:00;;;;;;;54.53;35.95;;;13.20;1.00;;;;;;5109145;28;20043;-60
2023/02/25 05:24:26;;;;;;;58.55;37.58;;;13.10;1.00;;;;;;5113538;28;20081;-60
2023/02/25 05:26:51;;;;;;;55.28;36.50;;;13.10;1.00;;;;;;5112961;28;20463;-60
2023/02/25 05:29:20;;;;;;;54.10;35.50;;;13.10;1.00;;;;;;5112972;28;20012;-60
2023/02/25 05:31:46;;;;;;;58.10;37.60;;;13.10;1.00;;;;;;5112974;28;20114;-60
2023/02/25 05:34:12;;;;;;;55.58;37.97;;;13.00;1.00;;;;;;5111931;28;20099;-59
2023/02/25 05:36:37;;;;;;;55.25;36.28;;;13.00;1.00;;;;;;5103755;28;20396;-60
2023/02/25 05:39:03;;;;;;;56.85;36.85;;;13.00;1.00;;;;;;5112568;28;20380;-60
2023/02/25 05:41:30;;;;;;;56.50;38.45;;;12.90;1.00;;;;;;5113409;28;20528;-59
2023/02/25 05:43:56;;;;;;;54.00;37.70;;;13.00;1.00;;;;;;5112903;28;20023;-59
2023/02/25 05:46:23;;;;;;;59.67;39.30;;;13.00;1.00;;;;;;5113178;28;20026;-59
2023/02/25 05:48:49;;;;;;;62.35;40.50;;;13.00;1.00;;;;;;5113072;28;20020;-59
2023/02/25 05:51:18;;;;;;;62.53;39.90;;;12.90;1.00;;;;;;5109065;28;20491;-59
2023/02/25 05:53:44;;;;;;;61.63;40.53;;;12.90;1.00;;;;;;5112612;28;20485;-59
2023/02/25 05:56:12;;;;;;;58.55;39.30;;;12.80;1.00;;;;;;5110675;28;20027;-60
2023/02/25 05:58:38;;;;;;;65.47;40.05;;;12.80;1.00;;;;;;5113030;27;20020;-60
2023/02/25 06:01:12;;;;;;;68.38;41.10;;;12.70;1.00;;;;;;5108497;28;20039;-59
2023/02/25 06:03:42;;;;;;;61.00;39.40;;;12.80;1.00;;;;;;5111187;28;20380;-59
2023/02/25 06:06:11;;;;;;;61.50;41.10;;;12.80;1.00;;;;;;5111279;28;20101;-60
2023/02/25 06:08:38;;;;;;;54.40;36.70;;;12.80;1.00;;;;;;5112907;28;20050;-59
2023/02/25 06:11:13;;;;;;;55.70;37.78;;;12.80;1.00;;;;;;5102641;28;20020;-59
2023/02/25 06:13:40;;;;;;;60.20;37.95;;;12.90;1.00;;;;;;5102752;28;20054;-60
2023/02/25 06:16:06;;;;;;;59.53;37.03;;;12.80;1.00;;;;;;5106813;28;20016;-60
2023/02/25 06:18:35;;;;;;;56.67;37.92;;;12.90;1.00;;;;;;5107996;28;20785;-59
2023/02/25 06:21:06;;;;;;;55.47;37.38;;;12.80;1.00;;;;;;5112211;28;20032;-61
2023/02/25 06:23:32;;;;;;;55.35;36.55;;;12.90;1.00;;;;;;5111221;28;20020;-60
2023/02/25 06:25:59;;;;;;;53.50;35.78;;;12.90;1.00;;;;;;5112242;28;20106;-60
2023/02/25 06:28:24;;;;;;;51.70;33.85;;;12.90;1.00;;;;;;5112604;27;20165;-60
2023/02/25 06:30:50;;;;;;;50.00;33.47;;;12.90;1.00;;;;;;5101198;28;20111;-60
2023/02/25 06:33:15;;;;;;;49.55;31.77;;;12.90;1.00;;;;;;5112194;28;20123;-60
2023/02/25 06:35:41;;;;;;;51.83;32.72;;;12.90;1.00;;;;;;5110633;28;20106;-59
2023/02/25 06:38:07;;;;;;;49.15;33.08;;;12.90;1.00;;;;;;5103418;28;20084;-59
2023/02/25 06:40:32;;;;;;;48.67;32.80;;;12.90;1.00;;;;;;5106431;28;20077;-60
2023/02/25 06:42:58;;;;;;;50.25;33.25;;;12.90;1.00;;;;;;5112330;28;20027;-59
2023/02/25 06:45:24;;;;;;;48.25;31.92;;;12.90;1.00;;;;;;5110223;28;20101;-59
2023/02/25 06:47:50;;;;;;;47.90;31.17;;;12.90;1.00;;;;;;5110783;28;20045;-59
2023/02/25 06:50:16;;;;;;;46.72;31.77;;;12.90;1.00;;;;;;5101538;28;20474;-59
2023/02/25 06:52:42;;;;;;;55.10;32.85;;;12.90;1.00;;;;;;5108373;28;20112;-59
2023/02/25 06:55:08;;;;;;;51.78;32.28;;;12.90;1.00;;;;;;5112030;28;20063;-59
2023/02/25 06:57:34;;;;;;;51.05;33.47;;;13.00;1.00;;;;;;5112063;28;20508;-60
2023/02/25 07:00:00;;;;;;;51.00;32.03;;;13.00;1.00;;;;;;5111576;28;20048;-59
2023/02/25 07:02:26;;;;;;;54.65;35.25;;;13.10;1.00;;;;;;5112061;28;20122;-59
2023/02/25 07:04:54;;;;;;;52.22;34.95;;;13.10;1.00;;;;;;5111433;28;20369;-59
2023/02/25 07:07:21;;;;;;;56.38;35.28;;;13.00;1.00;;;;;;5102842;28;20023;-59
2023/02/25 07:09:46;;;;;;;56.92;35.53;;;13.00;1.00;;;;;;5109304;28;20024;-59
2023/02/25 07:12:12;;;;;;;50.45;34.70;;;12.90;1.00;;;;;;5112297;28;20034;-59
2023/02/25 07:14:38;;;;;;;50.47;32.97;;;12.90;1.00;;;;;;5103750;28;20038;-58
2023/02/25 07:17:04;;;;;;;54.88;34.42;;;12.90;1.00;;;;;;5110086;28;20016;-59
2023/02/25 07:19:29;;;;;;;50.47;31.80;;;12.90;1.00;;;;;;5111581;28;20089;-58
2023/02/25 07:21:55;;;;;;;48.05;32.20;;;12.90;1.00;;;;;;5111385;28;20055;-59
2023/02/25 07:24:22;;;;;;;47.75;29.67;;;12.90;1.00;;;;;;5115281;28;20032;-59
2023/02/25 07:26:48;;;;;;;46.78;30.25;;;12.90;1.00;;;;;;5109967;28;20024;-59
2023/02/25 07:29:14;;;;;;;42.33;28.67;;;13.00;1.00;;;;;;5110871;28;20034;-59
2023/02/25 07:31:39;;;;;;;44.97;28.02;;;13.00;1.00;;;;;;5103426;28;20032;-59
2023/02/25 07:34:05;;;;;;;44.30;28.38;;;13.00;1.00;;;;;;5113941;28;20028;-59
2023/02/25 07:36:34;;;;;;;42.70;27.27;;;13.00;1.00;;;;;;5112063;28;20023;-59
2023/02/25 07:39:00;;;;;;;42.35;29.00;;;13.00;1.00;;;;;;5115579;28;20066;-59
2023/02/25 07:41:27;;;;;;;39.97;27.20;;;13.00;1.00;;;;;;5114213;28;20042;-59
2023/02/25 07:43:53;;;;;;;42.20;29.40;;;13.00;1.00;;;;;;5115527;28;20020;-59
2023/02/25 07:46:19;;;;;;;39.78;26.88;;;13.00;1.00;;;;;;5115285;28;20270;-59
2023/02/25 07:48:45;;;;;;;44.78;29.15;;;13.00;1.00;;;;;;5115722;28;20028;-59
2023/02/25 07:51:17;;;;;;;46.70;29.02;;;13.00;1.00;;;;;;5114954;28;20095;-59
2023/02/25 07:53:43;;;;;;;42.28;27.27;;;13.10;1.00;;;;;;5113911;28;20040;-59
2023/02/25 07:56:09;;;;;;;45.75;29.25;;;13.10;1.00;;;;;;5115083;28;20482;-59
2023/02/25 07:58:35;;;;;;;42.78;27.23;;;13.10;1.00;;;;;;5114629;27;20437;-59
2023/02/25 08:01:09;;;;;;;37.25;26.73;;;13.10;1.00;;;;;;5100410;28;20036;-59
2023/02/25 08:03:35;;;;;;;45.10;27.67;;;13.10;1.00;;;;;;5115199;28;20020;-59
2023/02/25 08:06:05;;;;;;;41.42;27.83;;;13.10;1.00;;;;;;5115045;28;20479;-59
2023/02/25 08:08:30;;;;;;;42.28;27.67;;;13.10;1.00;;;;;;5115060;28;20065;-59
2023/02/25 08:10:56;;;;;;;41.58;26.98;;;13.10;1.00;;;;;;5107174;28;20051;-59
2023/02/25 08:13:21;;;;;;;44.65;28.70;;;13.10;1.00;;;;;;5115224;28;20031;-58
2023/02/25 08:15:47;;;;;;;43.28;28.73;;;13.20;1.00;;;;;;5110179;28;20489;-60
2023/02/25 08:18:13;;;;;;;41.20;28.42;;;13.20;1.00;;;;;;5114886;28;20472;-59
2023/02/25 08:20:38;;;;;;;43.85;28.67;;;13.30;1.00;;;;;;5114703;28;20039;-59
2023/02/25 08:23:05;;;;;;;39.80;26.48;;;13.30;1.00;;;;;;5115086;28;20352;-58
2023/02/25 08:25:31;;;;;;;40.85;27.92;;;13.20;1.00;;;;;;5114479;28;20480;-59
2023/02/25 08:27:57;;;;;;;40.42;28.80;;;13.20;1.00;;;;;;5114762;28;20103;-58
2023/02/25 08:30:22;;;;;;;42.55;29.17;;;13.30;1.00;;;;;;5111408;28;20066;-59
2023/02/25 08:32:48;;;;;;;43.00;28.73;;;13.30;1.00;;;;;;5102250;28;20047;-58
2023/02/25 08:35:14;;;;;;;48.45;30.75;;;13.40;1.00;;;;;;5101792;28;20075;-59
2023/02/25 08:37:43;;;;;;;41.85;27.25;;;13.40;1.00;;;;;;5114671;28;20031;-59
2023/02/25 08:40:10;;;;;;;39.40;27.50;;;13.40;1.00;;;;;;5114479;28;20453;-59
2023/02/25 08:42:36;;;;;;;43.47;28.48;;;13.40;1.00;;;;;;5114349;28;20100;-59
2023/02/25 08:45:03;;;;;;;35.00;24.48;;;13.50;1.00;;;;;;5112921;28;20077;-59
2023/02/25 08:47:28;;;;;;;40.85;26.00;;;13.50;1.00;;;;;;5113626;28;20452;-59
2023/02/25 08:49:54;;;;;;;39.30;26.92;;;13.50;1.00;;;;;;5097462;28;20023;-59
2023/02/25 08:52:19;;;;;;;39.67;26.27;;;13.50;1.00;;;;;;5105021;28;20118;-59
2023/02/25 08:54:45;;;;;;;38.17;27.45;;;13.50;1.00;;;;;;5113909;28;20149;-59
2023/02/25 08:57:11;;;;;;;40.80;27.67;;;13.60;1.00;;;;;;5114299;28;20036;-59
2023/02/25 08:59:37;;;;;;;41.40;27.08;;;13.60;1.00;;;;;;5112303;28;20061;-58
2023/02/25 09:02:05;;;;;;;34.67;25.17;;;13.60;1.00;;;;;;5112747;28;20043;-59
2023/02/25 09:04:32;;;;;;;40.58;27.00;;;13.60;1.00;;;;;;5103798;28;20385;-59
2023/02/25 09:07:02;;;;;;;37.42;25.33;;;13.70;1.00;;;;;;5102506;28;20016;-59
2023/02/25 09:09:27;;;;;;;37.30;23.42;;;13.70;1.00;;;;;;5111313;28;20084;-59
2023/02/25 09:11:53;;;;;;;35.47;24.42;;;13.60;1.00;;;;;;5114170;28;20024;-59
2023/02/25 09:14:20;;;;;;;36.88;24.45;;;13.60;1.00;;;;;;5110529;28;20028;-59
2023/02/25 09:16:47;;;;;;;36.17;23.75;;;13.70;1.00;;;;;;5107969;28;20080;-59
2023/02/25 09:19:16;;;;;;;36.03;23.10;;;13.80;1.00;;;;;;5104066;28;20099;-59
2023/02/25 09:21:42;;;;;;;33.25;22.17;;;14.00;1.00;;;;;;5107378;28;20081;-59
2023/02/25 09:24:08;;;;;;;30.75;22.02;;;14.00;1.00;;;;;;5111785;28;20322;-59
2023/02/25 09:26:34;;;;;;;33.08;22.55;;;14.00;1.00;;;;;;5099335;28;20019;-59
2023/02/25 09:29:01;;;;;;;37.60;23.58;;;14.10;1.00;;;;;;5111808;28;20511;-59
2023/02/25 09:31:26;;;;;;;36.17;22.85;;;14.20;1.00;;;;;;5113476;28;20529;-59
2023/02/25 09:33:52;;;;;;;38.03;24.58;;;14.00;1.00;;;;;;5113613;28;20137;-59
2023/02/25 09:36:19;;;;;;;36.25;23.67;;;14.10;1.00;;;;;;5113545;28;20023;-59
2023/02/25 09:38:47;;;;;;;32.20;22.75;;;14.20;1.00;;;;;;5111078;28;20024;-59
2023/02/25 09:41:34;;;;;;;37.42;23.70;;;14.30;1.00;;;;;;5101074;27;20110;-58
2023/02/25 09:44:08;;;;;;;40.47;24.10;;;14.30;1.00;;;;;;5113228;28;20031;-59
2023/02/25 09:46:40;;;;;;;35.70;24.33;;;14.20;1.00;;;;;;5109315;28;20031;-60
2023/02/25 09:56:15;;;;;;;39.88;26.77;;;14.50;1.00;;;;;;5090750;28;20168;-60
2023/02/25 09:58:45;;;;;;;37.60;25.65;;;14.50;1.00;;;;;;5107125;28;20023;-60
2023/02/25 10:01:33;;;;;;;40.58;26.45;;;14.70;1.00;;;;;;5103701;28;20074;-60
2023/02/25 10:04:34;;;;;;;37.75;24.83;;;14.80;1.00;;;;;;5112087;28;20559;-60
2023/02/25 10:07:19;;;;;;;33.13;23.90;;;14.60;1.00;;;;;;5109216;28;20051;-60
2023/02/25 10:09:59;;;;;;;37.67;25.98;;;14.70;1.00;;;;;;5104672;28;20426;-60
2023/02/25 10:12:44;;;;;;;34.28;25.30;;;14.80;1.00;;;;;;5099516;28;20043;-60
2023/02/25 10:15:29;;;;;;;35.65;23.27;;;14.90;1.00;;;;;;5112353;28;20038;-60
2023/02/25 10:18:17;;;;;;;34.22;23.52;;;14.60;1.00;;;;;;5112872;28;20024;-60
2023/02/25 10:21:06;;;;;;;37.28;25.23;;;14.60;1.00;;;;;;5108306;28;20041;-60
2023/02/25 10:23:38;;;;;;;32.08;25.10;;;14.90;1.00;;;;;;5111539;28;20321;-60
2023/02/25 10:26:13;;;;;;;41.50;24.65;;;15.00;1.00;;;;;;5110620;28;20024;-60
2023/02/25 10:28:42;;;;;;;38.95;25.35;;;15.00;1.00;;;;;;5112062;28;20038;-60
2023/02/25 10:31:14;;;;;;;40.58;26.42;;;15.10;1.00;;;;;;5112737;28;20024;-60
2023/02/25 10:33:43;;;;;;;36.03;24.77;;;15.00;1.00;;;;;;5112194;28;20032;-60
2023/02/25 10:36:16;;;;;;;37.72;25.23;;;15.10;1.00;;;;;;5097370;28;20035;-60
2023/02/25 10:38:51;;;;;;;37.35;24.30;;;15.20;1.00;;;;;;5112201;28;20184;-61
2023/02/25 10:41:18;;;;;;;34.10;24.33;;;15.20;1.00;;;;;;5111976;28;20411;-60
2023/02/25 10:43:44;;;;;;;38.10;25.38;;;15.10;1.00;;;;;;5099238;28;20008;-60
2023/02/25 10:46:13;;;;;;;32.95;22.65;;;15.10;1.00;;;;;;5112235;28;20027;-60
2023/02/25 10:48:41;;;;;;;34.05;23.58;;;15.10;1.00;;;;;;5106675;28;20027;-61
2023/02/25 10:51:15;;;;;;;35.80;23.60;;;15.20;1.00;;;;;;5106307;28;20485;-64
2023/02/25 10:54:05;;;;;;;35.33;22.90;;;15.30;1.00;;;;;;5108295;28;20019;-61
2023/02/25 10:56:41;;;;;;;35.05;23.85;;;15.30;1.00;;;;;;5110235;28;20400;-61
2023/02/25 10:59:33;;;;;;;35.20;23.70;;;15.30;1.00;;;;;;5111923;28;20066;-61
2023/02/25 11:02:00;;;;;;;31.10;23.48;;;15.50;1.00;;;;;;5101438;28;20053;-61
2023/02/25 11:04:35;;;;;;;36.67;23.35;;;15.50;1.00;;;;;;5111641;28;20415;-61
2023/02/25 11:07:00;;;;;;;31.75;23.52;;;15.30;1.00;;;;;;5112315;28;20012;-61
2023/02/25 11:09:34;;;;;;;28.77;21.42;;;15.30;1.00;;;;;;5108052;28;20496;-61
2023/02/25 11:12:17;;;;;;;29.25;22.45;;;15.40;1.00;;;;;;5109378;28;20063;-61
2023/02/25 11:14:43;;;;;;;31.08;22.27;;;15.50;1.00;;;;;;5107215;28;20041;-61
2023/02/25 11:17:11;;;;;;;30.02;19.70;;;15.60;1.00;;;;;;5109903;28;20030;-61
2023/02/25 11:19:40;;;;;;;26.30;19.73;;;15.40;1.00;;;;;;5111588;28;20031;-61
2023/02/25 11:22:20;;;;;;;30.95;21.92;;;15.50;1.00;;;;;;5111660;28;20035;-61
2023/02/25 11:25:01;;;;;;;29.92;21.27;;;15.70;1.00;;;;;;5108177;28;20210;-61
2023/02/25 11:27:35;;;;;;;31.63;19.33;;;15.80;1.00;;;;;;5106117;28;20069;-61
2023/02/25 11:30:14;;;;;;;29.90;19.05;;;15.70;1.00;;;;;;5098426;28;20122;-60
2023/02/25 11:32:47;;;;;;;35.50;20.80;;;15.70;1.00;;;;;;5112381;28;20028;-61
2023/02/25 11:35:18;;;;;;;28.70;19.63;;;15.50;1.00;;;;;;5110294;28;20047;-60
2023/02/25 11:37:47;;;;;;;33.42;20.30;;;15.50;1.00;;;;;;5111938;28;20073;-60
2023/02/25 11:40:21;;;;;;;31.15;19.20;;;15.50;1.00;;;;;;5104946;28;20043;-60
2023/02/25 11:43:00;;;;;;;29.70;20.05;;;15.50;1.00;;;;;;5112119;28;20125;-60
2023/02/25 11:45:29;;;;;;;30.40;18.55;;;15.60;1.00;;;;;;5111453;28;20028;-61
2023/02/25 11:47:56;;;;;;;26.23;16.73;;;15.60;1.00;;;;;;5111536;28;20023;-61
2023/02/25 11:50:40;;;;;;;31.98;18.65;;;15.60;1.00;;;;;;5107339;28;20130;-61
2023/02/25 11:53:37;;;;;;;32.03;19.42;;;15.60;1.00;;;;;;5111621;28;20115;-61
2023/02/25 11:56:34;;;;;;;32.75;19.60;;;15.60;1.00;;;;;;5109050;28;20051;-61
2023/02/25 11:59:15;;;;;;;29.83;19.38;;;15.80;1.00;;;;;;5097963;28;20032;-61
2023/02/25 12:02:22;;;;;;;33.38;19.50;;;15.70;1.00;;;;;;5111875;28;20047;-61
2023/02/25 12:05:15;;;;;;;26.05;17.45;;;15.90;1.00;;;;;;5025215;28;20032;-61
2023/02/25 12:08:08;;;;;;;26.77;17.50;;;16.20;1.00;;;;;;5102105;28;20036;-61
2023/02/25 12:10:42;;;;;;;30.25;18.27;;;16.00;1.00;;;;;;5107156;28;20032;-61
2023/02/25 12:13:31;;;;;;;29.00;18.02;;;16.20;1.00;;;;;;5115444;28;20024;-61
2023/02/25 12:16:16;;;;;;;28.88;17.58;;;16.20;1.00;;;;;;5106224;28;20393;-61
2023/02/25 12:18:49;;;;;;;25.17;17.17;;;16.10;1.00;;;;;;5115252;28;20107;-61
2023/02/25 12:21:20;;;;;;;27.25;15.75;;;16.20;1.00;;;;;;5115449;28;20449;-61
2023/02/25 12:24:16;;;;;;;29.10;17.13;;;16.20;1.00;;;;;;5107200;28;20453;-61
2023/02/25 12:27:32;;;;;;;25.35;15.73;;;16.20;1.00;;;;;;5113593;28;20032;-61
2023/02/25 12:30:30;;;;;;;25.27;14.82;;;16.30;1.00;;;;;;5105527;28;20066;-61
2023/02/25 12:33:21;;;;;;;25.83;14.35;;;16.20;1.00;;;;;;5104590;28;20024;-61
2023/02/25 12:36:24;;;;;;;25.20;14.40;;;16.20;1.00;;;;;;5101182;28;20506;-61
2023/02/25 12:39:24;;;;;;;25.58;14.88;;;16.30;1.00;;;;;;5114385;28;20038;-61
2023/02/25 12:42:27;;;;;;;22.73;14.05;;;16.50;1.00;;;;;;5106158;28;20452;-61
2023/02/25 12:45:10;;;;;;;27.98;14.93;;;16.50;1.00;;;;;;5097418;28;20032;-61
2023/02/25 12:47:56;;;;;;;22.27;14.20;;;16.70;1.00;;;;;;5110022;28;20032;-60
2023/02/25 12:50:39;;;;;;;21.88;14.23;;;17.00;1.00;;;;;;5112920;28;20103;-59
2023/02/25 12:53:38;;;;;;;28.88;13.82;;;17.00;1.00;;;;;;5108603;28;20016;-60
2023/02/25 12:56:41;;;;;;;21.65;13.32;;;17.10;1.00;;;;;;5110237;28;20489;-60
2023/02/25 12:59:21;;;;;;;21.25;13.43;;;17.40;1.00;;;;;;5113308;28;20028;-59
2023/02/25 13:01:53;;;;;;;23.23;13.68;;;17.20;1.00;;;;;;5114848;28;20048;-60
2023/02/25 13:04:28;;;;;;;25.77;14.10;;;17.00;1.00;;;;;;5114161;28;20019;-60
2023/02/25 13:07:14;;;;;;;25.08;14.48;;;16.90;1.00;;;;;;5101578;28;20023;-60
2023/02/25 13:10:05;;;;;;;19.33;14.35;;;17.00;1.00;;;;;;5113830;28;20028;-60
2023/02/25 13:12:52;;;;;;;22.38;13.95;;;17.10;1.00;;;;;;5083327;28;20495;-60
2023/02/25 13:16:01;;;;;;;22.25;15.35;;;17.20;1.00;;;;;;5105038;28;20032;-60
2023/02/25 13:18:39;;;;;;;21.45;15.15;;;17.40;1.00;;;;;;5012155;28;20121;-60